Terminal Aerodrome Forecast
Issued by NWS

Home | Current Version | Previous Version | Text Only | Print | Product List | Glossary On
Versions: 1 2 3 4 5 6 7 8 9 10 11 12 13 14 15 16
000
FTUS45 KGGW 200500
TAFSDY
TAF
KSDY 200523Z 2006/2106 VRB03KT P6SM SCT150
      TEMPO 2007/2011 5SM BR
     FM201100 VRB03KT 4SM BR BKN060
     FM201500 24008KT 6SM BR VCSH BKN020
     FM201700 25008KT P6SM SCT040 SCT250
     FM210200 VRB05KT P6SM SCT200
      AMD LTD TO CLD VIS AND WIND=

USA.gov is the U.S. government's official web portal to all federal, state and local government web resources and services.